Time;durP1;ratioP1;P1;durP2;ratioP2;P2;SDS_P1;SDS_P2;PMS_P1;PMS_P2;Temp;Humidity;BMP_temperature;BMP_pressure;BME280_temperature;BME280_humidity;BME280_pressure;Samples;Min_cycle;Max_cycle;Signal;HPM_P1;HPM_P2
2022/01/30 00:01:54;;;;;;;18.70;3.20;;;7.30;99.90;;;7.90;83.93;101348.44;5031537;28;20079;-72
2022/01/30 00:04:26;;;;;;;14.80;2.72;;;7.30;99.90;;;7.89;84.45;101357.97;5031336;28;20037;-73
2022/01/30 00:06:51;;;;;;;17.13;3.22;;;7.20;99.90;;;7.86;84.51;101349.44;5038259;28;20068;-72
2022/01/30 00:09:20;;;;;;;17.92;3.30;;;7.20;99.90;;;7.87;84.59;101351.88;5045166;28;20026;-73
2022/01/30 00:11:52;;;;;;;16.80;3.30;;;7.20;99.90;;;7.92;84.85;101360.09;5045054;28;20036;-72
2022/01/30 00:14:20;;;;;;;19.58;4.32;;;7.30;99.90;;;7.87;85.30;101364.97;5035053;28;20099;-73
2022/01/30 00:16:59;;;;;;;18.90;3.45;;;7.30;99.90;;;7.91;85.38;101352.88;5047086;28;20049;-75
2022/01/30 00:19:47;;;;;;;16.15;3.60;;;7.30;99.90;;;7.83;85.84;101364.78;5030430;28;20037;-73
2022/01/30 00:22:25;;;;;;;21.55;3.90;;;7.20;99.90;;;7.85;86.38;101375.59;5032478;28;20037;-74
2022/01/30 00:24:59;;;;;;;16.75;3.47;;;7.30;99.90;;;7.84;86.63;101385.91;5035213;28;20070;-74
2022/01/30 00:27:43;;;;;;;24.63;5.00;;;7.20;99.90;;;7.89;86.92;101382.16;5053961;28;20029;-73
2022/01/30 00:30:12;;;;;;;19.42;3.90;;;7.20;99.90;;;7.86;87.78;101385.59;5055212;28;20017;-73
2022/01/30 00:32:38;;;;;;;17.48;3.90;;;7.20;99.90;;;7.86;87.60;101391.16;5055191;28;20033;-73
2022/01/30 00:35:05;;;;;;;17.15;3.40;;;7.10;99.90;;;7.78;87.18;101389.97;5054871;28;20510;-74
2022/01/30 00:37:31;;;;;;;26.88;4.18;;;7.10;99.90;;;7.78;87.20;101384.41;5054913;28;20037;-73
2022/01/30 00:39:57;;;;;;;21.90;4.72;;;7.10;99.90;;;7.74;87.79;101388.97;5054979;28;20071;-73
2022/01/30 00:42:29;;;;;;;18.80;4.70;;;7.10;99.90;;;7.69;86.88;101374.41;5054692;28;20040;-74
2022/01/30 00:44:55;;;;;;;27.25;4.63;;;7.00;99.90;;;7.62;87.67;101371.25;5054874;28;20079;-73
2022/01/30 00:47:21;;;;;;;25.48;3.88;;;7.00;99.90;;;7.53;87.24;101370.41;5054666;28;20057;-74
2022/01/30 00:49:47;;;;;;;17.83;3.70;;;7.00;99.90;;;7.55;87.39;101374.50;5054756;28;20047;-73
2022/01/30 00:52:16;;;;;;;25.63;3.85;;;7.00;99.90;;;7.44;87.77;101378.72;5054400;28;20025;-75
2022/01/30 00:54:45;;;;;;;22.45;3.97;;;6.90;99.90;;;7.48;87.85;101388.03;5053468;28;20139;-72
2022/01/30 00:57:14;;;;;;;28.77;4.05;;;6.90;99.90;;;7.39;87.83;101381.59;5053344;28;20052;-74
2022/01/30 00:59:40;;;;;;;22.42;3.63;;;6.80;99.90;;;7.33;87.81;101385.66;5053083;28;20103;-74
2022/01/30 01:02:06;;;;;;;20.10;3.40;;;6.80;99.90;;;7.29;88.05;101381.88;5054601;28;20043;-73
2022/01/30 01:04:31;;;;;;;24.05;4.82;;;6.70;99.90;;;7.30;88.42;101383.53;5036527;28;20033;-75
2022/01/30 01:06:57;;;;;;;20.40;3.97;;;6.70;99.90;;;7.23;88.70;101383.16;5036423;28;20041;-72
2022/01/30 01:09:31;;;;;;;17.88;3.63;;;6.60;99.90;;;7.18;88.87;101397.19;5056166;28;20039;-73
2022/01/30 01:12:27;;;;;;;21.30;3.88;;;6.50;99.90;;;7.10;89.66;101386.81;5058432;28;20025;-74
2022/01/30 01:25:44;;;;;;;27.85;4.72;;;6.40;99.90;;;7.00;87.00;101387.13;5049359;28;20059;-74
2022/01/30 01:28:10;;;;;;;21.35;2.88;;;6.40;99.90;;;6.95;87.48;101390.81;5034411;28;20025;-74
2022/01/30 01:30:41;;;;;;;16.90;3.17;;;6.40;99.90;;;6.93;87.67;101393.09;5034179;28;20025;-73
2022/01/30 01:33:15;;;;;;;19.63;3.92;;;6.30;99.90;;;6.86;87.97;101385.22;5032326;28;20681;-74
2022/01/30 01:35:41;;;;;;;18.83;4.47;;;6.30;99.90;;;6.93;88.09;101392.28;5033949;28;20033;-73
2022/01/30 01:38:12;;;;;;;19.98;4.22;;;6.30;99.90;;;6.94;88.01;101400.28;5034249;28;20446;-73
2022/01/30 01:40:44;;;;;;;18.67;3.53;;;6.30;99.90;;;6.96;87.83;101405.53;5033966;28;20025;-73
2022/01/30 01:43:10;;;;;;;30.25;4.47;;;6.30;99.90;;;6.95;88.18;101403.88;5033611;28;20036;-72
2022/01/30 01:45:39;;;;;;;22.20;4.70;;;6.30;99.90;;;6.96;88.00;101397.22;5034005;28;20038;-72
2022/01/30 01:48:12;;;;;;;18.67;4.32;;;6.20;99.90;;;6.93;88.10;101397.84;5048993;28;20029;-72
2022/01/30 01:50:44;;;;;;;19.05;4.32;;;6.30;99.90;;;6.96;88.41;101397.22;5033892;28;20025;-74
2022/01/30 01:53:15;;;;;;;22.63;3.95;;;6.30;99.90;;;6.92;89.00;101401.75;5033596;28;20053;-73
2022/01/30 01:55:44;;;;;;;22.35;4.20;;;6.20;99.90;;;6.87;89.61;101406.28;5033875;28;20386;-73
2022/01/30 01:58:11;;;;;;;23.00;4.63;;;6.10;99.90;;;6.81;90.28;101409.50;5033787;28;20025;-73
2022/01/30 02:00:38;;;;;;;32.63;4.45;;;6.10;99.90;;;6.75;91.46;101411.56;5034342;28;20048;-73
2022/01/30 02:03:04;;;;;;;31.25;5.55;;;6.00;99.90;;;6.69;91.77;101407.28;5033620;28;20056;-73
2022/01/30 02:05:34;;;;;;;30.55;5.45;;;6.00;99.90;;;6.66;92.33;101420.97;5033744;28;20053;-73
2022/01/30 02:24:59;;;;;;;24.05;3.90;;;6.30;99.90;;;6.93;90.98;101418.09;5033352;28;20117;-74
2022/01/30 02:27:31;;;;;;;23.15;4.30;;;6.30;99.90;;;6.99;89.85;101418.78;5051560;28;20173;-73
2022/01/30 02:30:15;;;;;;;20.77;3.80;;;6.40;99.90;;;7.02;89.94;101427.31;5053207;28;20546;-74
2022/01/30 02:32:42;;;;;;;20.02;3.85;;;6.40;99.90;;;6.97;89.84;101435.75;5035280;28;20116;-73
2022/01/30 02:35:10;;;;;;;21.42;5.38;;;6.40;99.90;;;6.96;89.67;101430.53;5052918;28;20029;-74
2022/01/30 02:37:42;;;;;;;25.92;4.43;;;6.40;99.90;;;6.90;90.51;101424.28;5053461;28;20102;-74
2022/01/30 02:40:12;;;;;;;23.50;4.90;;;6.30;99.90;;;6.81;91.03;101426.97;5052623;28;20071;-73
2022/01/30 02:42:44;;;;;;;34.05;6.97;;;6.20;99.90;;;6.75;91.14;101428.25;5034817;28;20037;-73
2022/01/30 02:45:12;;;;;;;33.17;4.70;;;6.20;99.90;;;6.65;92.30;101427.66;5052116;28;20024;-73
2022/01/30 02:47:52;;;;;;;30.02;4.28;;;6.10;99.90;;;6.61;92.41;101424.69;5051512;28;20551;-74
2022/01/30 02:50:32;;;;;;;30.80;4.88;;;6.00;99.90;;;6.54;92.97;101429.03;5053389;28;20486;-73
2022/01/30 02:52:58;;;;;;;27.60;5.28;;;5.90;99.90;;;6.48;93.58;101428.34;5052604;28;20079;-73
2022/01/30 02:55:25;;;;;;;27.65;5.38;;;5.80;99.90;;;6.46;93.83;101432.53;5052547;28;20028;-72
2022/01/30 02:57:51;;;;;;;22.98;4.72;;;5.80;99.90;;;6.43;94.04;101436.75;5052937;28;20029;-72
2022/01/30 03:00:22;;;;;;;26.10;4.50;;;5.80;99.90;;;6.39;93.90;101438.50;5051271;28;20445;-73
2022/01/30 03:02:48;;;;;;;31.80;4.78;;;5.70;99.90;;;6.40;94.56;101425.44;5052458;28;20037;-73
2022/01/30 03:05:14;;;;;;;22.67;4.38;;;5.70;99.90;;;6.34;95.16;101428.34;5052285;28;20395;-73
2022/01/30 03:07:43;;;;;;;28.92;6.03;;;5.60;99.90;;;6.25;95.62;101437.72;5052323;28;20056;-74
2022/01/30 03:10:11;;;;;;;26.42;4.88;;;5.70;99.90;;;6.26;96.12;101433.81;5052952;28;20044;-75
2022/01/30 03:12:43;;;;;;;28.45;4.82;;;5.60;99.90;;;6.27;96.42;101430.72;5052476;28;20052;-72
2022/01/30 03:15:11;;;;;;;25.63;4.47;;;5.60;99.90;;;6.26;96.42;101425.50;5052473;28;20044;-73
2022/01/30 03:17:37;;;;;;;33.42;5.80;;;5.60;99.90;;;6.26;96.14;101417.97;5034418;28;20445;-73
2022/01/30 03:20:05;;;;;;;28.83;5.03;;;5.60;99.90;;;6.22;97.15;101421.69;5052418;28;20025;-73
2022/01/30 03:22:34;;;;;;;29.88;5.05;;;5.50;99.90;;;6.12;97.44;101427.47;5052017;28;20051;-74
2022/01/30 03:25:00;;;;;;;31.85;4.97;;;5.40;99.90;;;6.08;97.74;101443.06;5051135;28;20059;-73
2022/01/30 03:27:29;;;;;;;29.88;5.03;;;5.40;99.90;;;6.03;98.24;101441.22;5033522;28;20029;-72
2022/01/30 03:30:03;;;;;;;26.83;5.43;;;5.40;99.90;;;6.07;97.79;101447.78;5047547;28;20484;-74
2022/01/30 03:32:30;;;;;;;21.92;5.55;;;5.40;99.90;;;6.01;98.51;101448.19;5032033;28;20116;-72
2022/01/30 03:34:57;;;;;;;34.35;4.80;;;5.40;99.90;;;6.04;98.01;101458.66;5032046;28;20036;-73
2022/01/30 03:37:23;;;;;;;31.95;5.47;;;5.40;99.90;;;6.02;98.48;101456.22;5031110;28;20036;-72
2022/01/30 03:39:48;;;;;;;26.88;5.25;;;5.40;99.90;;;6.02;98.88;101460.94;5032186;28;20104;-74
2022/01/30 03:42:14;;;;;;;38.58;5.05;;;5.40;99.90;;;5.97;98.56;101455.50;5032194;28;20037;-73
2022/01/30 03:44:40;;;;;;;32.38;4.40;;;5.30;99.90;;;5.97;97.96;101467.44;5032195;28;20041;-74
2022/01/30 03:47:09;;;;;;;26.45;4.75;;;5.40;99.90;;;6.12;97.16;101466.28;5032374;28;20036;-72
2022/01/30 03:49:35;;;;;;;34.88;5.28;;;5.40;99.90;;;6.18;96.46;101470.59;5030583;28;20022;-74
2022/01/30 03:52:04;;;;;;;27.33;5.07;;;5.50;99.90;;;6.20;96.29;101477.47;5031533;28;20083;-74
2022/01/30 03:54:32;;;;;;;33.42;5.10;;;5.50;99.90;;;6.22;96.11;101474.41;5031673;28;20044;-73
2022/01/30 03:57:01;;;;;;;26.73;3.67;;;5.50;99.90;;;6.25;96.00;101479.34;5031376;28;20496;-72
2022/01/30 03:59:30;;;;;;;27.23;4.78;;;5.50;99.90;;;6.21;96.67;101481.06;5046566;28;20373;-72
2022/01/30 04:01:56;;;;;;;28.08;4.38;;;5.50;99.90;;;6.23;96.10;101478.78;5030003;28;20116;-73
2022/01/30 04:04:22;;;;;;;24.33;4.32;;;5.50;99.90;;;6.26;95.62;101479.00;5031421;28;20512;-74
2022/01/30 04:06:49;;;;;;;23.75;4.53;;;5.50;99.90;;;6.18;95.43;101474.19;5030075;28;20041;-74
2022/01/30 04:09:15;;;;;;;28.30;5.28;;;5.40;99.90;;;6.14;96.01;101475.09;5031794;28;20056;-74
2022/01/30 04:11:41;;;;;;;23.40;4.63;;;5.40;99.90;;;6.15;95.62;101480.34;5031390;28;20428;-73
2022/01/30 04:14:08;;;;;;;25.75;4.55;;;5.50;99.90;;;6.09;96.44;101476.06;5031013;28;20079;-74
2022/01/30 04:16:34;;;;;;;31.30;4.38;;;5.50;99.90;;;5.93;97.28;101462.78;5031161;28;20046;-74
2022/01/30 04:19:00;;;;;;;22.63;4.63;;;5.30;99.90;;;5.97;96.59;101472.16;5031290;28;20339;-73
2022/01/30 04:21:26;;;;;;;31.95;4.55;;;5.30;99.90;;;5.92;97.61;101478.59;5046464;28;20151;-72
2022/01/30 04:23:52;;;;;;;25.85;5.47;;;5.30;99.90;;;5.98;97.92;101493.19;5030985;28;20033;-72
2022/01/30 04:26:21;;;;;;;28.08;4.28;;;5.30;99.90;;;6.01;97.48;101489.78;5040565;28;20037;-73
2022/01/30 04:28:47;;;;;;;29.33;5.60;;;5.40;99.90;;;6.07;97.48;101497.69;5050759;28;20029;-72
2022/01/30 04:31:17;;;;;;;25.20;4.03;;;5.40;99.90;;;6.13;97.25;101498.44;5050977;28;20181;-73
2022/01/30 04:33:43;;;;;;;32.33;5.18;;;5.40;99.90;;;6.14;97.00;101498.13;5050711;28;20036;-73
2022/01/30 04:36:18;;;;;;;25.42;3.90;;;5.50;99.90;;;6.15;97.01;101491.47;5050657;28;20039;-72
2022/01/30 04:39:04;;;;;;;24.75;4.72;;;5.40;99.90;;;6.09;97.03;101491.88;5050903;28;20104;-73
2022/01/30 05:01:13;;;;;;;23.13;4.00;;;5.40;99.90;;;6.08;96.80;101498.53;5052512;28;20039;-73
2022/01/30 05:03:59;;;;;;;23.70;3.97;;;5.40;99.90;;;6.17;95.69;101518.88;5051547;28;20029;-72
2022/01/30 05:06:54;;;;;;;;;;;5.50;99.90;;;6.22;95.34;101518.78;5062656;28;20060;-73
2022/01/30 05:09:11;;;;;;;20.23;3.85;;;5.50;99.90;;;6.20;95.61;101519.09;5070324;28;19909;-72
2022/01/30 05:11:37;;;;;;;28.25;3.95;;;5.60;99.90;;;6.22;94.79;101516.00;5071747;28;20257;-73
2022/01/30 05:14:04;;;;;;;17.90;3.30;;;5.60;99.90;;;6.25;95.24;101524.53;5064500;28;20515;-73
2022/01/30 05:16:32;;;;;;;26.35;3.88;;;5.60;99.90;;;6.22;95.18;101521.56;5054171;28;20036;-73
2022/01/30 05:18:58;;;;;;;28.08;4.05;;;5.60;99.90;;;6.24;95.11;101533.16;5054310;28;20070;-74
2022/01/30 05:21:24;;;;;;;21.30;4.53;;;5.60;99.90;;;6.31;94.62;101537.19;5054533;28;20114;-74
2022/01/30 05:23:50;;;;;;;24.73;4.75;;;5.60;99.90;;;6.28;94.61;101539.75;5054146;28;20464;-73
2022/01/30 05:26:24;;;;;;;14.73;3.20;;;5.60;99.90;;;6.26;95.04;101544.78;5044805;28;20044;-73
2022/01/30 05:28:50;;;;;;;15.35;3.58;;;5.60;99.90;;;6.24;96.52;101544.25;5032738;28;20040;-74
2022/01/30 05:31:19;;;;;;;20.73;3.63;;;5.50;99.90;;;6.16;96.25;101548.59;5033988;28;20033;-73
2022/01/30 05:33:46;;;;;;;15.63;3.38;;;5.40;99.90;;;6.08;96.82;101551.22;5033985;28;20033;-74
2022/01/30 05:36:12;;;;;;;17.15;3.63;;;5.40;99.90;;;5.97;96.47;101555.34;5033883;28;20124;-71
2022/01/30 05:38:39;;;;;;;20.10;3.60;;;5.40;99.90;;;5.90;96.92;101549.38;5033817;28;20040;-73
2022/01/30 05:41:06;;;;;;;21.63;3.17;;;5.30;99.90;;;5.91;96.20;101557.34;5034132;28;20432;-73
2022/01/30 05:43:37;;;;;;;25.70;3.47;;;5.30;99.90;;;5.84;96.60;101557.72;5034098;28;20026;-75
2022/01/30 05:46:12;;;;;;;16.58;3.92;;;5.20;99.90;;;5.88;96.19;101565.47;5033770;28;20041;-75
2022/01/30 05:48:39;;;;;;;18.50;3.60;;;5.20;99.90;;;5.91;95.71;101549.03;5033650;28;20399;-72
2022/01/30 05:51:06;;;;;;;24.50;3.30;;;5.30;99.90;;;5.97;96.27;101552.56;5033748;28;20029;-74
2022/01/30 05:53:32;;;;;;;19.35;3.13;;;5.30;99.90;;;5.93;96.91;101549.56;5032085;28;20096;-73
2022/01/30 05:56:01;;;;;;;26.70;4.40;;;5.20;99.90;;;5.92;96.72;101561.78;5033725;28;20048;-73
2022/01/30 05:58:27;;;;;;;22.40;4.32;;;5.30;99.90;;;5.97;96.90;101556.16;5033515;28;20523;-72
2022/01/30 06:00:53;;;;;;;18.60;3.80;;;5.30;99.90;;;6.02;95.79;101561.59;5033655;28;20029;-73
2022/01/30 06:03:21;;;;;;;23.25;4.07;;;5.30;99.90;;;5.97;95.67;101563.66;5033506;28;20033;-73
2022/01/30 06:05:49;;;;;;;21.58;4.07;;;5.30;99.90;;;6.03;95.17;101568.81;5048614;28;20133;-73
2022/01/30 06:08:27;;;;;;;23.15;3.30;;;5.30;99.90;;;6.11;93.97;101570.03;5033320;28;20416;-73
2022/01/30 06:10:53;;;;;;;26.48;4.18;;;5.40;99.90;;;6.10;94.88;101576.72;5031982;28;20025;-73
2022/01/30 06:13:19;;;;;;;14.95;3.28;;;5.30;99.90;;;6.10;94.03;101576.72;5033276;28;20108;-74
2022/01/30 06:15:46;;;;;;;23.25;3.75;;;5.40;99.90;;;6.08;94.12;101576.19;5033634;28;20033;-73
2022/01/30 06:18:11;;;;;;;24.80;3.78;;;5.40;99.90;;;6.08;93.78;101590.88;5033283;28;20040;-73
2022/01/30 06:20:40;;;;;;;14.93;3.42;;;5.40;99.90;;;6.09;94.05;101588.94;5033224;28;20037;-74
2022/01/30 06:23:06;;;;;;;18.30;3.38;;;5.40;99.90;;;6.00;95.08;101594.38;5031693;28;20033;-74
2022/01/30 06:25:32;;;;;;;19.75;3.30;;;5.30;99.90;;;5.97;94.91;101592.22;5035844;28;20563;-74
2022/01/30 06:27:58;;;;;;;25.60;4.57;;;5.30;99.90;;;5.88;95.11;101594.00;5052816;28;20029;-74
2022/01/30 06:30:24;;;;;;;23.77;4.32;;;5.20;99.90;;;5.88;95.00;101598.72;5052822;28;20063;-73
2022/01/30 06:32:52;;;;;;;16.85;4.45;;;5.10;99.90;;;5.86;94.63;101601.00;5037466;28;20025;-73
2022/01/30 06:35:18;;;;;;;23.27;3.55;;;5.20;99.90;;;5.85;95.06;101597.38;5057545;28;20104;-73
2022/01/30 06:37:44;;;;;;;19.60;3.97;;;5.20;99.90;;;5.77;95.18;101593.34;5053226;28;20091;-72
2022/01/30 06:40:12;;;;;;;18.23;3.00;;;5.10;99.90;;;5.70;95.86;101592.91;5053134;28;20044;-74
2022/01/30 06:42:39;;;;;;;25.98;4.07;;;5.00;99.90;;;5.69;96.28;101601.53;5052914;28;20476;-74
2022/01/30 06:45:07;;;;;;;25.50;4.38;;;5.00;99.90;;;5.65;96.93;101604.06;5052618;28;20476;-73
2022/01/30 06:47:41;;;;;;;21.85;3.67;;;5.00;99.90;;;5.65;96.63;101604.06;5052417;28;20043;-72
2022/01/30 06:50:12;;;;;;;17.40;3.70;;;4.90;99.90;;;5.63;96.41;101603.56;5052594;28;20387;-73
2022/01/30 06:52:39;;;;;;;17.98;3.50;;;5.00;99.90;;;5.65;96.06;101606.84;5052427;28;20033;-73
2022/01/30 06:55:07;;;;;;;24.65;4.55;;;5.00;99.90;;;5.54;96.57;101615.63;5034532;28;20029;-73
2022/01/30 06:57:34;;;;;;;24.13;4.25;;;4.90;99.90;;;5.49;96.97;101612.94;5052511;28;20565;-73
2022/01/30 07:00:00;;;;;;;25.65;3.92;;;4.90;99.90;;;5.47;97.29;101627.09;5052656;28;20033;-73
2022/01/30 07:02:26;;;;;;;25.08;3.83;;;4.80;99.90;;;5.45;97.64;101629.34;5052276;28;20025;-75
2022/01/30 07:04:52;;;;;;;20.42;3.67;;;4.80;99.90;;;5.36;97.72;101624.78;5051962;28;20044;-73
2022/01/30 07:07:21;;;;;;;21.10;3.70;;;4.70;99.90;;;5.41;97.54;101631.06;5053446;28;20116;-73
2022/01/30 07:09:50;;;;;;;19.90;3.38;;;4.70;99.90;;;5.38;97.95;101637.22;5052521;28;20056;-74
2022/01/30 07:12:16;;;;;;;21.65;3.65;;;4.70;99.90;;;5.36;98.11;101641.41;5052758;28;20028;-73
2022/01/30 07:14:44;;;;;;;24.40;3.97;;;4.60;99.90;;;5.25;98.01;101636.00;5052018;28;20025;-74
2022/01/30 07:17:10;;;;;;;21.58;3.70;;;4.60;99.90;;;5.24;98.44;101648.19;5052105;28;20028;-74
2022/01/30 07:19:36;;;;;;;20.00;4.30;;;4.50;99.90;;;5.22;98.25;101649.63;5052003;28;20108;-73
2022/01/30 07:22:02;;;;;;;17.80;3.72;;;4.50;99.90;;;5.12;99.34;101658.06;5057720;28;20110;-74
2022/01/30 07:24:28;;;;;;;27.80;4.20;;;4.50;99.90;;;5.21;98.92;101659.06;5063966;28;20586;-74
2022/01/30 07:26:53;;;;;;;32.60;4.97;;;4.50;99.90;;;5.28;98.77;101665.06;5049351;28;20033;-73
2022/01/30 07:29:22;;;;;;;20.63;4.47;;;4.60;99.90;;;5.35;98.33;101675.75;5042207;28;20025;-75
2022/01/30 07:31:48;;;;;;;24.35;4.63;;;4.60;99.90;;;5.41;97.92;101674.56;5042615;28;20029;-72
2022/01/30 07:34:14;;;;;;;23.50;3.78;;;4.70;99.90;;;5.42;97.87;101677.06;5058642;28;20033;-74
2022/01/30 07:36:42;;;;;;;25.30;4.13;;;4.70;99.90;;;5.49;97.40;101677.47;5035011;28;20029;-74
2022/01/30 07:39:16;;;;;;;23.40;3.65;;;4.70;99.90;;;5.44;98.09;101680.34;5032012;28;20043;-73
2022/01/30 07:41:44;;;;;;;26.60;3.75;;;4.70;99.90;;;5.57;97.45;101676.81;5033438;28;20032;-73
2022/01/30 07:44:16;;;;;;;25.25;4.55;;;4.80;99.90;;;5.57;97.13;101685.13;5031686;28;20029;-73
2022/01/30 07:46:41;;;;;;;22.27;4.22;;;4.80;99.90;;;5.53;97.13;101680.47;5032192;28;20380;-72
2022/01/30 07:49:07;;;;;;;22.13;5.00;;;4.80;99.90;;;5.53;97.14;101688.78;5031744;28;20021;-74
2022/01/30 07:51:33;;;;;;;28.23;4.05;;;4.80;99.90;;;5.37;98.24;101690.13;5031820;28;20033;-74
2022/01/30 07:53:59;;;;;;;30.60;4.85;;;4.70;99.90;;;5.45;97.48;101695.84;5031444;28;20029;-72
2022/01/30 07:56:25;;;;;;;19.77;4.63;;;4.70;99.90;;;5.47;97.79;101692.75;5031466;28;20029;-73
2022/01/30 07:58:51;;;;;;;37.67;4.75;;;4.70;99.90;;;5.44;98.25;101708.06;5031914;28;20055;-74
2022/01/30 08:01:16;;;;;;;23.80;3.50;;;4.70;99.90;;;5.45;97.72;101701.41;5030287;28;20040;-73
2022/01/30 08:03:42;;;;;;;24.23;5.15;;;4.70;99.90;;;5.50;97.61;101709.63;5031680;28;20095;-72
2022/01/30 08:06:08;;;;;;;29.13;6.07;;;4.80;99.90;;;5.57;98.01;101710.09;5031532;28;20041;-75
2022/01/30 08:08:42;;;;;;;25.55;5.05;;;4.80;99.90;;;5.62;97.77;101710.00;5031830;28;20137;-74
2022/01/30 08:11:11;;;;;;;28.23;4.10;;;4.90;99.90;;;5.65;96.98;101703.06;5032240;28;20475;-75
2022/01/30 08:13:41;;;;;;;26.77;3.92;;;4.90;99.90;;;5.68;96.61;101710.75;5031514;28;20448;-74
2022/01/30 08:16:09;;;;;;;22.23;4.10;;;5.00;99.90;;;5.75;96.06;101720.34;5031680;28;20056;-75
2022/01/30 08:18:37;;;;;;;23.38;4.65;;;5.00;99.90;;;5.80;95.84;101711.13;5030114;28;20033;-75
2022/01/30 08:21:06;;;;;;;18.88;4.38;;;5.00;99.90;;;5.66;96.49;101713.81;5030460;28;20445;-75
2022/01/30 08:23:35;;;;;;;20.40;4.28;;;5.10;99.90;;;5.66;96.72;101705.50;5030068;28;20029;-75
2022/01/30 08:26:02;;;;;;;20.77;4.70;;;5.00;99.90;;;5.67;95.57;101718.25;5033192;28;20120;-74
2022/01/30 08:28:28;;;;;;;24.48;4.20;;;5.00;99.90;;;5.68;96.04;101727.41;5033265;28;20067;-75
2022/01/30 08:30:54;;;;;;;29.08;4.88;;;5.00;99.90;;;5.68;96.55;101724.63;5051268;28;20503;-75
2022/01/30 08:33:20;;;;;;;19.10;4.30;;;4.90;99.90;;;5.73;95.82;101739.22;5051919;28;20025;-74
2022/01/30 08:35:47;;;;;;;33.35;4.38;;;5.00;99.90;;;5.87;95.28;101733.78;5051326;28;20512;-76
2022/01/30 08:38:18;;;;;;;31.15;4.82;;;5.10;99.90;;;6.02;94.48;101733.56;5033783;28;20083;-74
2022/01/30 08:40:47;;;;;;;18.30;3.55;;;5.20;99.90;;;6.25;93.87;101731.78;5051333;28;20048;-74
2022/01/30 08:43:14;;;;;;;29.48;4.63;;;5.40;99.90;;;6.41;92.84;101738.72;5052303;28;20365;-75
2022/01/30 08:45:41;;;;;;;21.23;3.83;;;5.50;99.90;;;6.62;90.85;101734.47;5055743;28;20021;-75
2022/01/30 08:48:08;;;;;;;18.23;5.05;;;5.70;99.90;;;6.73;90.87;101733.16;5055579;28;20476;-75
2022/01/30 08:50:35;;;;;;;25.00;4.72;;;5.80;99.90;;;6.87;89.71;101738.72;5053807;28;20135;-74
2022/01/30 08:53:04;;;;;;;21.23;4.57;;;6.00;99.90;;;6.93;89.49;101736.66;5053731;28;20101;-74
2022/01/30 08:55:30;;;;;;;21.13;3.05;;;6.10;99.90;;;7.15;88.06;101734.00;5054622;28;20135;-74
2022/01/30 08:58:07;;;;;;;21.63;3.75;;;6.20;99.90;;;7.26;87.69;101732.63;5037315;28;20115;-74
2022/01/30 09:00:36;;;;;;;26.20;4.80;;;6.40;99.90;;;7.49;85.80;101730.75;5053706;28;20488;-75
2022/01/30 09:03:05;;;;;;;18.83;4.03;;;6.60;99.90;;;7.43;84.86;101739.22;5055164;28;20036;-74
2022/01/30 09:05:34;;;;;;;26.02;4.93;;;6.60;99.90;;;7.46;85.21;101721.09;5054648;28;20037;-76
2022/01/30 09:08:05;;;;;;;28.00;5.50;;;6.60;99.90;;;7.50;84.68;101738.81;5054683;28;20381;-76
2022/01/30 09:10:38;;;;;;;30.08;5.35;;;6.70;99.90;;;7.67;83.32;101722.31;5054934;28;20031;-75
2022/01/30 09:13:06;;;;;;;20.80;4.10;;;6.80;99.90;;;7.61;84.57;101717.97;5054323;28;20116;-73
2022/01/30 09:15:42;;;;;;;20.80;4.53;;;6.80;99.90;;;7.64;85.12;101711.78;5036716;28;20024;-75
2022/01/30 09:18:11;;;;;;;22.40;5.85;;;6.80;99.90;;;7.89;84.76;101708.44;5054538;28;20035;-74
2022/01/30 09:20:43;;;;;;;28.67;4.90;;;7.00;99.90;;;8.06;81.90;101698.59;5054621;28;20021;-74
2022/01/30 09:23:11;;;;;;;22.83;4.07;;;7.20;99.90;;;8.11;82.86;101698.44;5054591;28;20036;-74
2022/01/30 09:25:46;;;;;;;23.42;5.15;;;7.20;99.90;;;8.18;81.67;101694.09;5033483;28;20029;-74
2022/01/30 09:28:13;;;;;;;22.20;4.85;;;7.30;99.90;;;7.94;80.65;101699.13;5034918;28;20205;-73
2022/01/30 09:30:39;;;;;;;21.67;4.60;;;7.20;99.90;;;7.70;82.17;101685.53;5034461;28;20369;-75
2022/01/30 09:33:05;;;;;;;21.98;4.88;;;7.00;99.90;;;7.72;83.57;101697.16;5049308;28;20115;-74
2022/01/30 09:35:31;;;;;;;35.75;4.78;;;7.00;99.90;;;7.51;83.58;101704.31;5034391;28;20480;-75
2022/01/30 09:37:58;;;;;;;29.08;5.38;;;6.80;99.90;;;7.51;84.74;101698.75;5033194;28;20025;-75
2022/01/30 09:40:27;;;;;;;22.50;3.88;;;6.80;99.90;;;7.52;85.11;101702.34;5034506;28;20026;-74
2022/01/30 09:42:56;;;;;;;25.38;4.25;;;6.80;99.90;;;7.83;84.74;101712.44;5034411;28;20034;-75
2022/01/30 09:45:28;;;;;;;31.17;5.13;;;7.00;99.90;;;7.88;83.27;101717.09;5049239;28;20489;-75
2022/01/30 09:47:54;;;;;;;30.50;5.10;;;7.20;99.90;;;7.95;82.89;101718.31;5033100;28;20038;-72
2022/01/30 09:50:24;;;;;;;31.13;5.40;;;7.20;99.90;;;8.13;82.14;101724.81;5034215;28;20507;-73
2022/01/30 09:52:50;;;;;;;26.85;6.50;;;7.30;99.90;;;8.16;81.98;101732.53;5034433;28;20076;-73
2022/01/30 09:55:16;;;;;;;27.65;5.28;;;7.40;99.90;;;8.15;82.65;101727.28;5032495;28;20057;-76
2022/01/30 09:57:43;;;;;;;31.20;4.75;;;7.30;99.90;;;8.22;81.62;101724.91;5049512;28;20064;-74
2022/01/30 10:00:12;;;;;;;28.88;5.78;;;7.40;99.90;;;8.29;80.96;101728.06;5032353;28;20037;-74
2022/01/30 10:02:47;;;;;;;28.20;4.80;;;7.40;99.90;;;8.37;80.68;101716.19;5033427;28;20091;-72
2022/01/30 10:05:16;;;;;;;28.77;5.47;;;7.50;99.90;;;8.53;80.05;101717.44;5061848;22;20306;-78
2022/01/30 10:07:52;;;;;;;26.35;5.05;;;7.60;99.90;;;8.46;79.21;101717.06;5031400;28;20102;-78
2022/01/30 10:10:24;;;;;;;29.02;5.50;;;7.60;99.90;;;8.67;78.24;101711.78;5029834;28;20155;-77
2022/01/30 10:13:12;;;;;;;23.88;4.70;;;7.80;99.90;;;8.62;78.09;101723.03;5030041;28;20022;-79
2022/01/30 10:16:03;;;;;;;23.63;4.78;;;7.80;99.90;;;8.71;78.17;101730.31;5032726;28;20056;-77
2022/01/30 10:18:33;;;;;;;28.20;5.28;;;7.90;99.90;;;8.57;78.30;101740.72;5032350;28;20021;-77
2022/01/30 10:21:01;;;;;;;29.25;4.18;;;7.90;99.90;;;8.97;77.66;101742.41;5029867;28;20026;-78
2022/01/30 10:23:36;;;;;;;28.13;5.10;;;8.00;99.90;;;8.82;76.14;101745.63;5031942;28;20521;-77
2022/01/30 10:26:08;;;;;;;27.13;4.30;;;8.00;99.90;;;8.58;77.67;101736.78;5049007;28;20029;-80
2022/01/30 10:28:37;;;;;;;37.40;5.88;;;7.80;99.90;;;8.10;78.69;101732.97;5034162;28;20056;-78
2022/01/30 10:31:08;;;;;;;31.77;6.03;;;7.50;99.90;;;8.03;78.26;101729.81;5050859;28;20049;-79
2022/01/30 10:33:50;;;;;;;33.28;5.07;;;7.40;99.90;;;8.16;77.84;101740.88;5051588;28;20028;-76
2022/01/30 10:36:24;;;;;;;21.13;4.60;;;7.50;99.90;;;8.40;77.44;101743.38;5035691;28;20104;-78
2022/01/30 10:39:22;;;;;;;28.67;5.50;;;7.60;99.90;;;8.46;75.02;101742.94;5036329;28;20036;-78
2022/01/30 10:41:56;;;;;;;26.75;4.95;;;7.80;99.90;;;8.71;74.28;101746.19;5051953;28;20021;-78
2022/01/30 10:44:22;;;;;;;28.17;4.78;;;8.00;99.90;;;8.66;74.59;101746.34;5053500;28;20025;-78
2022/01/30 10:46:53;;;;;;;28.98;5.68;;;8.00;99.90;;;8.56;74.17;101738.25;5054501;28;20030;-80
2022/01/30 10:49:24;;;;;;;30.75;5.68;;;7.90;99.90;;;8.58;73.97;101742.34;5053504;28;20125;-81
2022/01/30 10:52:01;;;;;;;27.77;5.43;;;7.90;99.90;;;8.60;73.69;101734.50;5035663;28;20029;-77
2022/01/30 10:54:34;;;;;;;33.65;6.30;;;7.90;99.90;;;8.51;73.21;101741.97;5035205;28;20021;-78
2022/01/30 10:57:08;;;;;;;25.83;5.43;;;7.80;99.90;;;8.44;73.63;101730.47;5052882;28;20107;-79
2022/01/30 10:59:42;;;;;;;23.70;5.47;;;7.80;99.90;;;8.23;73.03;101726.53;5051983;28;20025;-78
2022/01/30 11:02:18;;;;;;;33.25;4.97;;;7.60;99.90;;;8.47;71.17;101738.19;5031741;28;20522;-78
2022/01/30 11:04:48;;;;;;;26.75;6.30;;;7.80;99.90;;;8.56;71.83;101741.03;5048998;28;20045;-78
2022/01/30 11:07:19;;;;;;;33.80;6.03;;;7.90;99.90;;;8.56;71.39;101736.28;5032125;28;20044;-78
2022/01/30 11:10:20;;;;;;;43.28;6.55;;;8.00;99.90;;;8.54;70.46;101734.97;5049024;28;20017;-80
2022/01/30 11:13:07;;;;;;;27.02;6.20;;;7.90;99.90;;;8.58;72.04;101744.31;5050581;28;20464;-77
2022/01/30 11:15:40;;;;;;;35.03;6.18;;;7.80;99.90;;;8.38;71.69;101749.25;5051141;28;20021;-79
2022/01/30 11:18:05;;;;;;;29.23;5.60;;;7.70;99.90;;;8.35;71.74;101752.69;5032986;28;20066;-78